createdAt,value
2017-10-18T00:00:53.658Z,15.67
2017-10-18T00:03:21.117Z,16.57
2017-10-18T00:05:49.362Z,14.80
2017-10-18T00:08:17.075Z,14.40
2017-10-18T00:10:44.545Z,15.00
2017-10-18T00:13:12.007Z,15.93
2017-10-18T00:15:39.516Z,15.60
2017-10-18T00:18:06.981Z,16.10
2017-10-18T00:20:34.447Z,14.30
2017-10-18T00:23:01.903Z,15.57
2017-10-18T00:25:29.383Z,15.50
2017-10-18T00:27:56.882Z,15.57
2017-10-18T00:30:24.348Z,17.00
2017-10-18T00:32:51.812Z,18.30
2017-10-18T00:35:19.279Z,20.37
2017-10-18T00:37:47.540Z,20.13
2017-10-18T00:40:15.035Z,19.03
2017-10-18T00:42:42.511Z,15.90
2017-10-18T00:45:09.999Z,19.20
2017-10-18T00:47:37.484Z,18.80
2017-10-18T00:50:04.948Z,15.10
2017-10-18T00:52:32.432Z,13.80
2017-10-18T00:54:59.909Z,13.97
2017-10-18T00:57:27.386Z,14.63
2017-10-18T00:59:54.880Z,15.10
2017-10-18T01:02:23.122Z,15.53
2017-10-18T01:04:50.596Z,15.17
2017-10-18T01:07:18.054Z,19.30
2017-10-18T01:09:45.526Z,21.43
2017-10-18T01:12:13.773Z,22.30
2017-10-18T01:14:41.264Z,18.07
2017-10-18T01:17:09.560Z,18.37
2017-10-18T01:19:37.061Z,18.40
2017-10-18T01:22:04.515Z,16.87
2017-10-18T01:24:31.996Z,13.80
2017-10-18T01:26:59.473Z,16.00
2017-10-18T01:29:27.706Z,18.53
2017-10-18T01:31:55.187Z,16.50
2017-10-18T01:34:22.657Z,17.60
2017-10-18T01:36:50.912Z,18.10
2017-10-18T01:39:18.361Z,18.50
2017-10-18T01:41:45.854Z,18.90
2017-10-18T01:44:13.358Z,19.00
2017-10-18T01:46:40.822Z,16.20
2017-10-18T01:49:08.306Z,16.07
2017-10-18T01:51:36.570Z,15.50
2017-10-18T01:54:04.055Z,15.77
2017-10-18T01:56:32.293Z,16.50
2017-10-18T01:58:59.774Z,14.90
2017-10-18T02:01:27.267Z,16.57
2017-10-18T02:03:54.729Z,16.93
2017-10-18T02:06:22.221Z,17.20
2017-10-18T02:08:49.712Z,19.83
2017-10-18T02:11:17.971Z,19.80
2017-10-18T02:13:45.456Z,17.50
2017-10-18T02:16:13.715Z,18.43
2017-10-18T02:18:41.201Z,17.00
2017-10-18T02:21:08.663Z,16.10
2017-10-18T02:23:36.586Z,14.90
2017-10-18T02:26:04.040Z,15.67
2017-10-18T02:28:31.527Z,13.63
2017-10-18T02:30:59.770Z,12.80
2017-10-18T02:33:27.209Z,12.13
2017-10-18T02:35:54.695Z,13.37
2017-10-18T02:38:22.156Z,13.30
2017-10-18T02:40:49.656Z,16.43
2017-10-18T02:43:17.148Z,14.60
2017-10-18T02:45:44.628Z,14.20
2017-10-18T02:48:12.132Z,14.73
2017-10-18T02:50:39.598Z,15.63
2017-10-18T02:53:07.081Z,11.80
2017-10-18T02:55:34.553Z,12.60
2017-10-18T02:58:02.040Z,12.63
2017-10-18T03:00:29.524Z,11.13
2017-10-18T03:02:56.998Z,11.30
2017-10-18T03:05:24.462Z,10.90
2017-10-18T03:07:51.940Z,10.97
2017-10-18T03:10:19.432Z,12.57
2017-10-18T03:12:46.940Z,12.27
2017-10-18T03:15:14.384Z,14.37
2017-10-18T03:17:41.861Z,16.50
2017-10-18T03:20:09.322Z,15.10
2017-10-18T03:22:36.816Z,19.73
2017-10-18T03:25:04.297Z,20.03
2017-10-18T03:27:31.842Z,19.90
2017-10-18T03:30:00.116Z,20.37
2017-10-18T03:32:27.568Z,18.97
2017-10-18T03:34:55.845Z,17.93
2017-10-18T03:37:24.071Z,18.90
2017-10-18T03:39:51.568Z,16.10
2017-10-18T03:42:19.041Z,15.67
2017-10-18T03:44:47.277Z,14.47
2017-10-18T03:47:14.778Z,14.57
2017-10-18T03:49:43.042Z,14.80
2017-10-18T03:52:11.284Z,16.83
2017-10-18T03:54:38.815Z,16.10
2017-10-18T03:57:06.574Z,18.07
2017-10-18T03:59:34.077Z,17.03
2017-10-18T04:02:02.059Z,18.40
2017-10-18T04:04:29.563Z,20.77
2017-10-18T04:06:57.038Z,21.47
2017-10-18T04:09:24.563Z,26.03
2017-10-18T04:11:52.034Z,24.77
2017-10-18T04:14:19.524Z,27.20
2017-10-18T04:16:47.009Z,22.30
2017-10-18T04:19:14.488Z,15.50
2017-10-18T04:21:41.984Z,16.93
2017-10-18T04:24:09.488Z,17.33
2017-10-18T04:26:36.981Z,14.00
2017-10-18T04:29:04.439Z,15.53
2017-10-18T04:31:31.981Z,18.00
2017-10-18T04:33:59.455Z,16.47
2017-10-18T04:36:27.740Z,15.97
2017-10-18T04:38:55.213Z,16.40
2017-10-18T04:41:22.747Z,14.10
2017-10-18T04:43:50.228Z,14.57
2017-10-18T04:46:17.741Z,16.10
2017-10-18T04:48:45.247Z,14.00
2017-10-18T04:51:12.748Z,16.23
2017-10-18T04:53:40.205Z,15.53
2017-10-18T04:56:07.692Z,17.20
2017-10-18T04:58:35.208Z,17.77
2017-10-18T05:01:02.688Z,18.10
2017-10-18T05:03:30.166Z,16.80
2017-10-18T05:05:57.636Z,13.70
2017-10-18T05:08:25.149Z,14.70
2017-10-18T05:10:52.652Z,18.17
2017-10-18T05:13:20.165Z,19.43
2017-10-18T05:15:47.681Z,18.60
2017-10-18T05:18:15.986Z,19.03
2017-10-18T05:20:43.495Z,15.67
2017-10-18T05:23:10.958Z,16.50
2017-10-18T05:25:38.466Z,16.40
2017-10-18T05:28:06.744Z,16.10
2017-10-18T05:30:34.208Z,16.67
2017-10-18T05:33:02.480Z,15.97
2017-10-18T05:35:29.950Z,18.60
2017-10-18T05:37:57.460Z,14.97
2017-10-18T05:40:24.915Z,16.10
2017-10-18T05:42:52.405Z,15.83
2017-10-18T05:45:19.908Z,17.13
2017-10-18T05:47:47.411Z,15.93
2017-10-18T05:50:15.153Z,15.70
2017-10-18T05:52:42.650Z,15.97
2017-10-18T05:55:10.090Z,15.13
2017-10-18T05:57:37.617Z,14.77
2017-10-18T06:00:05.112Z,14.20
2017-10-18T06:02:32.614Z,14.57
2017-10-18T06:05:00.090Z,15.30
2017-10-18T06:07:27.574Z,15.30
2017-10-18T06:09:55.056Z,15.53
2017-10-18T06:12:23.333Z,15.20
2017-10-18T06:14:50.823Z,13.20
2017-10-18T06:17:18.285Z,13.13
2017-10-18T06:19:45.768Z,13.90
2017-10-18T06:22:13.285Z,13.43
2017-10-18T06:24:40.858Z,13.03
2017-10-18T06:27:08.748Z,12.23
2017-10-18T06:29:36.436Z,13.63
2017-10-18T06:32:05.015Z,11.70
2017-10-18T06:34:32.585Z,14.43
2017-10-18T06:37:00.097Z,14.90
2017-10-18T06:39:27.635Z,13.70
2017-10-18T06:41:55.219Z,13.83
2017-10-18T06:44:22.776Z,14.97
2017-10-18T06:46:50.390Z,14.00
2017-10-18T06:49:21.776Z,14.60
2017-10-18T06:51:49.383Z,12.57
2017-10-18T06:54:17.665Z,12.50
2017-10-18T06:56:45.980Z,12.60
2017-10-18T06:59:13.543Z,10.97
2017-10-18T07:01:41.054Z,10.90
2017-10-18T07:04:09.555Z,11.60
2017-10-18T07:06:38.095Z,11.40
2017-10-18T07:09:05.665Z,11.07
2017-10-18T07:11:33.954Z,12.13
2017-10-18T07:14:02.248Z,13.17
2017-10-18T07:16:30.514Z,10.60
2017-10-18T07:18:59.200Z,10.57
2017-10-18T07:21:27.208Z,11.50
2017-10-18T07:23:54.779Z,10.67
2017-10-18T07:26:22.317Z,10.20
2017-10-18T07:28:49.846Z,11.53
2017-10-18T07:31:18.184Z,11.27
2017-10-18T07:33:45.723Z,10.87
2017-10-18T07:36:13.388Z,10.70
2017-10-18T07:38:40.955Z,11.73
2017-10-18T07:41:08.596Z,12.60
2017-10-18T07:43:36.268Z,13.00
2017-10-18T07:46:03.842Z,13.57
2017-10-18T07:48:31.446Z,13.63
2017-10-18T07:50:59.068Z,13.43
2017-10-18T07:53:26.674Z,12.73
2017-10-18T07:55:54.976Z,12.57
2017-10-18T07:58:23.447Z,13.60
2017-10-18T08:00:51.033Z,13.60
2017-10-18T08:03:18.641Z,11.80
2017-10-18T08:05:46.313Z,12.27
2017-10-18T08:08:14.588Z,12.23
2017-10-18T08:10:43.250Z,11.93
2017-10-18T08:13:10.781Z,10.93
2017-10-18T08:15:38.383Z,11.40
2017-10-18T08:18:05.924Z,11.13
2017-10-18T08:20:33.456Z,10.90
2017-10-18T08:23:01.061Z,10.40
2017-10-18T08:25:28.596Z,10.40
2017-10-18T08:27:56.141Z,10.30
2017-10-18T08:30:23.724Z,10.93
2017-10-18T08:32:51.322Z,12.87
2017-10-18T08:35:18.899Z,11.70
2017-10-18T08:37:46.556Z,13.10
2017-10-18T08:40:14.117Z,12.57
2017-10-18T08:42:41.664Z,11.70
2017-10-18T08:45:09.948Z,10.30
2017-10-18T08:47:37.537Z,10.27
2017-10-18T08:50:05.096Z,10.17
2017-10-18T08:52:32.797Z,8.67
2017-10-18T08:55:00.329Z,8.70
2017-10-18T08:57:27.841Z,7.97
2017-10-18T08:59:56.201Z,9.90
2017-10-18T09:02:24.529Z,8.70
2017-10-18T09:04:52.075Z,8.23
2017-10-18T09:07:19.600Z,7.37
2017-10-18T09:09:47.886Z,8.33
2017-10-18T09:12:15.360Z,8.37
2017-10-18T09:14:42.840Z,9.00
2017-10-18T09:17:10.350Z,8.83
2017-10-18T09:19:38.584Z,8.80
2017-10-18T09:22:12.056Z,7.37
2017-10-18T09:24:39.527Z,7.30
2017-10-18T09:27:07.010Z,7.37
2017-10-18T09:29:34.509Z,7.20
2017-10-18T09:32:02.854Z,7.67
2017-10-18T09:34:30.392Z,8.10
2017-10-18T09:36:57.921Z,7.70
2017-10-18T09:39:25.462Z,7.80
2017-10-18T09:41:52.946Z,8.30
2017-10-18T09:44:20.452Z,7.93
2017-10-18T09:46:47.932Z,6.83
2017-10-18T09:49:16.181Z,7.53
2017-10-18T09:51:43.700Z,8.13
2017-10-18T09:54:11.184Z,6.40
2017-10-18T09:56:38.658Z,6.63
2017-10-18T09:59:06.164Z,6.90
2017-10-18T10:01:33.635Z,6.43
2017-10-18T10:04:01.114Z,6.70
2017-10-18T10:06:28.586Z,6.80
2017-10-18T10:08:56.329Z,6.70
2017-10-18T10:11:23.842Z,6.80
2017-10-18T10:13:51.344Z,6.80
2017-10-18T10:16:18.861Z,6.90
2017-10-18T10:18:46.335Z,7.10
2017-10-18T10:21:13.852Z,6.60
2017-10-18T10:23:42.097Z,7.30
2017-10-18T10:26:09.855Z,6.63
2017-10-18T10:28:37.349Z,7.80
2017-10-18T10:31:05.619Z,7.63
2017-10-18T10:33:33.906Z,6.67
2017-10-18T10:36:01.368Z,6.60
2017-10-18T10:38:29.246Z,6.90
2017-10-18T10:40:56.726Z,7.60
2017-10-18T10:43:24.178Z,6.60
2017-10-18T10:45:51.662Z,7.70
2017-10-18T10:48:19.145Z,6.80
2017-10-18T10:50:47.395Z,7.10
2017-10-18T10:53:14.852Z,8.07
2017-10-18T10:55:42.330Z,6.50
2017-10-18T10:58:10.003Z,7.80
2017-10-18T11:00:38.305Z,7.83
2017-10-18T11:03:05.875Z,8.00
2017-10-18T11:05:33.446Z,6.40
2017-10-18T11:08:01.175Z,8.00
2017-10-18T11:10:28.657Z,7.50
2017-10-18T11:12:56.220Z,8.03
2017-10-18T11:15:23.700Z,7.50
2017-10-18T11:17:51.216Z,8.47
2017-10-18T11:20:18.703Z,6.50
2017-10-18T11:22:46.177Z,8.20
2017-10-18T11:25:13.663Z,7.27
2017-10-18T11:27:42.730Z,7.67
2017-10-18T11:30:10.230Z,8.20
2017-10-18T11:32:37.905Z,6.73
2017-10-18T11:35:06.722Z,7.30
2017-10-18T11:37:34.827Z,6.60
2017-10-18T11:40:03.322Z,7.27
2017-10-18T11:42:31.683Z,6.70
2017-10-18T11:44:59.658Z,6.70
2017-10-18T11:47:27.718Z,7.03
2017-10-18T11:49:56.218Z,7.00
2017-10-18T11:52:23.900Z,6.50
2017-10-18T11:54:52.040Z,6.80
2017-10-18T11:57:19.987Z,8.10
2017-10-18T11:59:48.240Z,7.97
2017-10-18T12:02:16.249Z,7.07
2017-10-18T12:04:44.276Z,5.87
2017-10-18T12:07:12.182Z,7.10
2017-10-18T12:09:39.913Z,7.70
2017-10-18T12:12:08.994Z,7.80
2017-10-18T12:14:36.809Z,7.13
2017-10-18T12:17:04.564Z,7.43
2017-10-18T12:19:32.504Z,7.63
2017-10-18T12:22:00.282Z,6.33
2017-10-18T12:24:28.104Z,7.20
2017-10-18T12:26:55.860Z,6.93
2017-10-18T12:29:24.216Z,6.80
2017-10-18T12:31:52.362Z,6.30
2017-10-18T12:34:20.438Z,6.50
2017-10-18T12:36:49.071Z,7.33
2017-10-18T12:39:17.442Z,7.57
2017-10-18T12:41:52.478Z,6.57
2017-10-18T12:44:20.955Z,6.70
2017-10-18T12:46:49.449Z,6.73
2017-10-18T12:49:17.203Z,6.00
2017-10-18T12:51:45.202Z,6.33
2017-10-18T12:54:13.876Z,7.10
2017-10-18T12:56:41.971Z,6.67
2017-10-18T12:59:09.838Z,6.80
2017-10-18T13:01:38.506Z,6.33
2017-10-18T13:04:06.486Z,8.20
2017-10-18T13:06:34.521Z,6.30
2017-10-18T13:09:02.392Z,7.83
2017-10-18T13:11:30.543Z,6.77
2017-10-18T13:13:58.722Z,5.73
2017-10-18T13:16:27.627Z,6.90
2017-10-18T13:18:57.728Z,6.20
2017-10-18T13:21:25.660Z,6.80
2017-10-18T13:23:53.758Z,7.00
2017-10-18T13:26:22.369Z,6.33
2017-10-18T13:28:50.073Z,7.17
2017-10-18T13:31:18.316Z,6.43
2017-10-18T13:33:47.644Z,6.70
2017-10-18T13:36:16.192Z,6.00
2017-10-18T13:38:43.935Z,5.30
2017-10-18T13:41:12.390Z,6.30
2017-10-18T13:43:40.182Z,6.40
2017-10-18T13:46:07.864Z,5.20
2017-10-18T13:48:35.341Z,6.10
2017-10-18T13:51:02.828Z,7.17
2017-10-18T13:53:30.305Z,7.00
2017-10-18T13:55:57.796Z,6.80
2017-10-18T13:58:26.134Z,7.00
2017-10-18T14:00:53.627Z,6.70
2017-10-18T14:03:21.150Z,8.03
2017-10-18T14:05:48.630Z,6.00
2017-10-18T14:08:16.149Z,7.30
2017-10-18T14:10:43.661Z,7.00
2017-10-18T14:13:11.151Z,7.03
2017-10-18T14:15:38.648Z,7.50
2017-10-18T14:18:06.111Z,8.47
2017-10-18T14:20:33.591Z,7.13
2017-10-18T14:23:01.097Z,7.53
2017-10-18T14:25:28.580Z,7.60
2017-10-18T14:27:56.730Z,7.40
2017-10-18T14:30:24.205Z,6.80
2017-10-18T14:32:51.678Z,6.20
2017-10-18T14:35:19.223Z,7.57
2017-10-18T14:37:46.698Z,7.07
2017-10-18T14:40:14.193Z,6.60
2017-10-18T14:42:42.419Z,7.00
2017-10-18T14:45:10.352Z,7.10
2017-10-18T14:47:37.849Z,6.70
2017-10-18T14:50:05.492Z,6.60
2017-10-18T14:52:32.989Z,6.57
2017-10-18T14:55:00.476Z,6.70
2017-10-18T14:57:28.776Z,6.27
2017-10-18T14:59:56.255Z,6.10
2017-10-18T15:02:23.769Z,6.60
2017-10-18T15:04:51.258Z,6.73
2017-10-18T15:07:18.736Z,7.47
2017-10-18T15:09:46.241Z,6.60
2017-10-18T15:12:13.729Z,6.27
2017-10-18T15:14:41.232Z,6.40
2017-10-18T15:17:08.731Z,6.50
2017-10-18T15:19:36.197Z,6.63
2017-10-18T15:22:03.709Z,6.60
2017-10-18T15:24:31.180Z,6.70
2017-10-18T15:26:59.425Z,6.80
2017-10-18T15:29:26.915Z,6.47
2017-10-18T15:31:55.271Z,6.27
2017-10-18T15:34:22.782Z,6.10
2017-10-18T15:36:50.253Z,5.87
2017-10-18T15:39:17.747Z,6.27
2017-10-18T15:41:45.946Z,6.37
2017-10-18T15:44:13.427Z,7.07
2017-10-18T15:46:40.905Z,6.03
2017-10-18T15:49:08.655Z,7.50
2017-10-18T15:51:36.158Z,8.70
2017-10-18T15:54:03.615Z,8.60
2017-10-18T15:56:31.896Z,7.67
2017-10-18T15:59:00.158Z,6.67
2017-10-18T16:01:27.958Z,6.50
2017-10-18T16:03:55.436Z,7.10
2017-10-18T16:06:22.945Z,7.67
2017-10-18T16:08:50.470Z,6.70
2017-10-18T16:11:17.964Z,7.73
2017-10-18T16:13:45.499Z,7.57
2017-10-18T16:16:13.014Z,6.60
2017-10-18T16:18:40.537Z,8.03
2017-10-18T16:21:08.017Z,7.10
2017-10-18T16:23:36.663Z,6.80
2017-10-18T16:26:04.176Z,7.00
2017-10-18T16:28:31.695Z,6.67
2017-10-18T16:30:59.479Z,7.37
2017-10-18T16:33:27.755Z,7.20
2017-10-18T16:35:55.239Z,7.17
2017-10-18T16:38:22.737Z,7.20
2017-10-18T16:40:50.236Z,8.47
2017-10-18T16:43:18.513Z,12.37
2017-10-18T16:45:46.834Z,9.30
2017-10-18T16:48:14.716Z,7.50
2017-10-18T16:50:42.434Z,7.20
2017-10-18T16:53:09.924Z,7.10
2017-10-18T16:55:37.408Z,7.30
2017-10-18T16:58:04.904Z,14.43
2017-10-18T17:00:32.429Z,11.30
2017-10-18T17:02:59.907Z,8.00
2017-10-18T17:05:28.418Z,8.03
2017-10-18T17:07:57.326Z,8.00
2017-10-18T17:10:24.800Z,7.90
2017-10-18T17:12:52.325Z,8.10
2017-10-18T17:15:19.841Z,8.13
2017-10-18T17:17:47.347Z,8.50
2017-10-18T17:20:14.844Z,7.77
2017-10-18T17:22:42.629Z,8.87
2017-10-18T17:25:10.884Z,9.40
2017-10-18T17:27:38.399Z,10.00
2017-10-18T17:30:05.930Z,12.10
2017-10-18T17:32:34.157Z,8.60
2017-10-18T17:35:01.663Z,11.90
2017-10-18T17:37:30.146Z,10.80
2017-10-18T17:39:58.442Z,9.03
2017-10-18T17:42:26.714Z,11.30
2017-10-18T17:44:54.216Z,12.07
2017-10-18T17:47:21.749Z,9.97
2017-10-18T17:49:49.210Z,9.67
2017-10-18T17:52:16.719Z,9.87
2017-10-18T17:54:44.967Z,10.27
2017-10-18T17:57:12.487Z,10.23
2017-10-18T17:59:40.195Z,9.60
2017-10-18T18:02:07.685Z,9.40
2017-10-18T18:04:35.184Z,9.73
2017-10-18T18:07:02.691Z,9.87
2017-10-18T18:09:30.966Z,9.20
2017-10-18T18:11:59.213Z,9.77
2017-10-18T18:14:26.720Z,9.40
2017-10-18T18:16:54.191Z,9.53
2017-10-18T18:19:21.685Z,9.50
2017-10-18T18:21:49.168Z,9.83
2017-10-18T18:24:16.673Z,9.93
2017-10-18T18:26:44.184Z,9.80
2017-10-18T18:29:12.419Z,9.90
2017-10-18T18:31:39.929Z,9.90
2017-10-18T18:34:08.173Z,12.33
2017-10-18T18:36:35.727Z,10.67
2017-10-18T18:39:03.238Z,11.37
2017-10-18T18:41:30.721Z,11.30
2017-10-18T18:43:58.963Z,10.53
2017-10-18T18:46:27.251Z,10.67
2017-10-18T18:48:54.757Z,10.13
2017-10-18T18:51:23.057Z,11.13
2017-10-18T18:53:51.337Z,12.30
2017-10-18T18:56:19.596Z,9.83
2017-10-18T18:58:47.527Z,10.57
2017-10-18T19:01:15.040Z,10.97
2017-10-18T19:03:43.287Z,10.70
2017-10-18T19:06:10.794Z,11.20
2017-10-18T19:08:39.312Z,10.10
2017-10-18T19:11:06.843Z,10.37
2017-10-18T19:13:34.343Z,11.40
2017-10-18T19:16:01.824Z,10.60
2017-10-18T19:18:29.330Z,11.87
2017-10-18T19:20:57.087Z,10.80
2017-10-18T19:23:24.883Z,10.63
2017-10-18T19:25:52.374Z,11.13
2017-10-18T19:28:19.898Z,10.63
2017-10-18T19:30:47.402Z,11.33
2017-10-18T19:33:14.891Z,11.00
2017-10-18T19:35:42.955Z,11.27
2017-10-18T19:38:10.410Z,11.20
2017-10-18T19:40:37.900Z,10.67
2017-10-18T19:43:05.397Z,11.07
2017-10-18T19:45:33.680Z,10.90
2017-10-18T19:48:01.228Z,12.00
2017-10-18T19:50:28.737Z,12.97
2017-10-18T19:52:56.247Z,11.40
2017-10-18T19:55:23.740Z,11.13
2017-10-18T19:57:51.253Z,12.70
2017-10-18T20:00:19.515Z,12.90
2017-10-18T20:02:47.005Z,11.43
2017-10-18T20:05:14.489Z,11.53
2017-10-18T20:07:41.972Z,11.40
2017-10-18T20:10:09.478Z,12.60
2017-10-18T20:12:37.727Z,12.63
2017-10-18T20:15:05.217Z,11.10
2017-10-18T20:17:32.720Z,12.07
2017-10-18T20:20:00.217Z,11.73
2017-10-18T20:22:28.469Z,10.90
2017-10-18T20:24:56.285Z,12.20
2017-10-18T20:27:23.789Z,12.57
2017-10-18T20:29:51.304Z,12.40
2017-10-18T20:32:18.788Z,13.97
2017-10-18T20:34:46.291Z,12.27
2017-10-18T20:37:13.762Z,12.70
2017-10-18T20:39:41.255Z,13.50
2017-10-18T20:42:08.719Z,12.70
2017-10-18T20:44:36.994Z,13.23
2017-10-18T20:47:04.488Z,12.90
2017-10-18T20:49:32.749Z,12.70
2017-10-18T20:52:00.264Z,13.07
2017-10-18T20:54:27.795Z,12.57
2017-10-18T20:56:55.665Z,12.33
2017-10-18T20:59:23.170Z,13.63
2017-10-18T21:01:50.648Z,12.83
2017-10-18T21:04:18.915Z,12.90
2017-10-18T21:06:46.426Z,12.50
2017-10-18T21:09:13.918Z,13.10
2017-10-18T21:11:41.399Z,13.80
2017-10-18T21:14:08.902Z,12.93
2017-10-18T21:16:36.370Z,13.70
2017-10-18T21:19:03.892Z,13.00
2017-10-18T21:21:31.439Z,14.30
2017-10-18T21:23:58.930Z,14.13
2017-10-18T21:26:26.445Z,12.50
2017-10-18T21:28:53.946Z,11.17
2017-10-18T21:31:21.413Z,12.43
2017-10-18T21:33:48.912Z,11.93
2017-10-18T21:36:16.426Z,12.17
2017-10-18T21:38:44.399Z,12.20
2017-10-18T21:41:11.861Z,12.10
2017-10-18T21:43:39.386Z,11.67
2017-10-18T21:46:07.596Z,11.00
2017-10-18T21:48:35.438Z,12.30
2017-10-18T21:51:02.923Z,12.23
2017-10-18T21:53:30.428Z,11.90
2017-10-18T21:55:58.713Z,11.50
2017-10-18T21:58:27.021Z,12.90
2017-10-18T22:00:54.558Z,12.17
2017-10-18T22:03:22.805Z,12.90
2017-10-18T22:05:50.334Z,12.80
2017-10-18T22:08:17.836Z,13.37
2017-10-18T22:10:45.327Z,12.70
2017-10-18T22:13:12.868Z,14.00
2017-10-18T22:15:40.352Z,12.97
2017-10-18T22:18:09.144Z,13.57
2017-10-18T22:20:37.741Z,12.73
2017-10-18T22:23:05.239Z,12.67
2017-10-18T22:25:32.709Z,12.27
2017-10-18T22:28:00.969Z,12.50
2017-10-18T22:30:28.784Z,12.80
2017-10-18T22:32:56.233Z,12.97
2017-10-18T22:35:23.736Z,12.20
2017-10-18T22:37:51.222Z,11.30
2017-10-18T22:40:19.505Z,12.17
2017-10-18T22:42:47.742Z,12.30
2017-10-18T22:45:15.233Z,12.20
2017-10-18T22:47:43.519Z,13.13
2017-10-18T22:50:11.777Z,12.70
2017-10-18T22:52:40.046Z,12.50
2017-10-18T22:55:07.562Z,12.10
2017-10-18T22:57:35.464Z,11.07
2017-10-18T23:00:03.717Z,12.50
2017-10-18T23:02:31.453Z,12.17
2017-10-18T23:04:58.965Z,12.47
2017-10-18T23:07:26.456Z,11.60
2017-10-18T23:09:53.917Z,12.17
2017-10-18T23:12:21.375Z,11.47
2017-10-18T23:14:49.191Z,11.67
2017-10-18T23:17:16.669Z,11.67
2017-10-18T23:19:44.155Z,12.47
2017-10-18T23:22:11.644Z,10.73
2017-10-18T23:24:39.128Z,12.13
2017-10-18T23:27:06.620Z,13.97
2017-10-18T23:29:34.104Z,14.40
2017-10-18T23:32:02.400Z,14.23
2017-10-18T23:34:29.875Z,13.97
2017-10-18T23:36:57.368Z,14.67
2017-10-18T23:39:24.826Z,16.20
2017-10-18T23:41:52.304Z,12.80
2017-10-18T23:44:19.803Z,11.70
2017-10-18T23:46:47.278Z,11.40
2017-10-18T23:49:15.541Z,12.70
2017-10-18T23:51:43.010Z,11.63
2017-10-18T23:54:11.265Z,11.40
2017-10-18T23:56:38.765Z,10.97
2017-10-18T23:59:06.991Z,13.50
